Airfield :
LOGIN :

Register | Disclaimer

   EN    FR    IT 

 










Legend :    VFR   Marginal VFR   IFR   Intensive IFR   Very Intensive IFR
Visi :
Ceiling :
>= 8 km
>= 3000ft
5 to 8 km
1000 to 3000 ft
1500m to 5 km
500 to 1000 ft
800 to 1500m
200 to 500 ft
< 800m
< 200 ft
Symbols :   Thunderstorms  Fog  Heavy snow  Heavy precipitations  Wind > 20 kt
SIGMETs :     Misc.  Thunderstorms  Icing  Turbulence  Mountain Waves  Volcanic Ashes






- Airport Elevation : 121 ft
- IATA code : HUY


EGNJ - Humberside

CURRENT METAR :
  • 091020Z 31019KT 9999 FEW035 07/01 Q1007

EXPIRED METARs :
  • 090950Z 32016KT 9999 FEW035 06/01 Q1006
  • 090920Z 32016KT 9999 FEW020 06/01 Q1005
  • 090850Z 31017KT 9999 FEW017 06/02 Q1003
  • 090820Z 30017KT 9999 FEW017 07/02 Q1002
  • 090750Z 31020KT 9999 FEW023 SCT031 07/02 Q1000

TAF TAF EGNJ
Valid from the 09 at 09:00 until the 09 at 18:00 UTC


090804Z 0909/0918 32015G25KT 9999 FEW025
TEMPO 0909/0912 32022G35KT
PROB30
TEMPO 0909/0911 7000 SHRA
BECMG 0915/0918 26006KT
ATIS : +44 1652 682 020



MET'MAP, your aeronautical weather chart ! - Copyright ORBIFLY December 2007 - Disclaimer

ORBIFLY MET'MAP TEAM :

Programming & Development : Alexandra Zaïnal
Concept & original design : Baudouin d'Aumeries
Assistance for programming : Marc-Olivier Méhu
Technical & hardware support : Manuel Goepfert

Contact : metmap@orbifly.com




SOURCES & CREDITS :

   NOAA